Time;durP1;ratioP1;P1;durP2;ratioP2;P2;SDS_P1;SDS_P2;PMS_P1;PMS_P2;Temp;Humidity;BMP_temperature;BMP_pressure;BME280_temperature;BME280_humidity;BME280_pressure;Samples;Min_cycle;Max_cycle;Signal;HPM_P1;HPM_P2
2023/12/01 00:01:07;;;;;;;20.52;15.45;;;-1.10;99.90;;;;;;5053795;28;20199;-56
2023/12/01 00:03:35;;;;;;;20.25;18.05;;;-1.10;99.90;;;;;;5053898;28;20286;-57
2023/12/01 00:06:02;;;;;;;17.65;15.75;;;-1.00;99.90;;;;;;5053822;28;20211;-58
2023/12/01 00:08:29;;;;;;;19.58;16.58;;;-1.00;99.90;;;;;;5053677;28;20232;-58
2023/12/01 00:10:56;;;;;;;18.42;16.27;;;-1.00;99.90;;;;;;5053703;28;20206;-57
2023/12/01 00:13:23;;;;;;;21.38;16.58;;;-1.00;99.90;;;;;;5053715;28;20237;-59
2023/12/01 00:15:50;;;;;;;22.38;15.63;;;-1.00;99.90;;;;;;5052829;28;20602;-58
2023/12/01 00:18:16;;;;;;;25.05;18.30;;;-1.00;99.90;;;;;;5053269;28;20687;-59
2023/12/01 00:20:45;;;;;;;21.40;16.10;;;-0.90;99.90;;;;;;5053011;28;20198;-57
2023/12/01 00:23:11;;;;;;;18.08;14.57;;;-0.90;99.90;;;;;;5053535;28;20213;-58
2023/12/01 00:25:38;;;;;;;17.52;14.73;;;-0.90;99.90;;;;;;5052342;28;20230;-58
2023/12/01 00:28:05;;;;;;;19.60;17.48;;;-0.90;99.90;;;;;;5053232;28;20213;-55
2023/12/01 00:30:32;;;;;;;18.55;16.63;;;-0.80;99.90;;;;;;5053689;28;20207;-56
2023/12/01 00:32:59;;;;;;;18.33;16.13;;;-0.80;99.90;;;;;;5053734;28;20228;-54
2023/12/01 00:35:26;;;;;;;19.10;16.80;;;-0.80;99.90;;;;;;5053610;28;20206;-58
2023/12/01 00:37:54;;;;;;;20.63;15.65;;;-0.70;99.90;;;;;;5053269;28;20211;-56
2023/12/01 00:40:21;;;;;;;17.15;14.77;;;-0.70;99.90;;;;;;5053430;28;20230;-58
2023/12/01 00:42:48;;;;;;;19.10;17.15;;;-0.70;99.90;;;;;;5053700;28;20224;-56
2023/12/01 00:45:15;;;;;;;19.35;17.00;;;-0.70;99.90;;;;;;5053473;28;20584;-55
2023/12/01 00:47:42;;;;;;;18.25;15.93;;;-0.60;99.90;;;;;;5051864;28;20285;-58
2023/12/01 00:50:10;;;;;;;16.20;14.60;;;-0.60;99.90;;;;;;5052966;28;20719;-57
2023/12/01 00:52:36;;;;;;;18.45;16.08;;;-0.60;99.90;;;;;;5052753;28;20297;-58
2023/12/01 00:55:06;;;;;;;19.42;17.17;;;-0.60;99.90;;;;;;5052857;28;20226;-56
2023/12/01 00:57:32;;;;;;;25.13;16.52;;;-0.60;99.90;;;;;;5052779;28;20206;-57
2023/12/01 00:59:59;;;;;;;17.55;15.05;;;-0.60;99.90;;;;;;5053088;28;20237;-56
2023/12/01 01:02:26;;;;;;;18.08;16.17;;;-0.60;99.90;;;;;;5052664;28;20213;-58
2023/12/01 01:04:53;;;;;;;18.25;15.30;;;-0.50;99.90;;;;;;5052861;28;20289;-56
2023/12/01 01:07:21;;;;;;;21.35;17.00;;;-0.50;99.90;;;;;;5052554;28;20206;-59
2023/12/01 01:09:47;;;;;;;18.80;16.83;;;-0.50;99.90;;;;;;5052700;28;20314;-56
2023/12/01 01:12:16;;;;;;;19.70;14.50;;;-0.50;99.90;;;;;;5052944;28;20206;-58
2023/12/01 01:14:42;;;;;;;19.92;15.52;;;-0.50;99.90;;;;;;5052744;28;20223;-55
2023/12/01 01:17:09;;;;;;;18.67;15.77;;;-0.40;99.90;;;;;;5052387;28;20211;-58
2023/12/01 01:19:36;;;;;;;22.17;16.95;;;-0.40;99.90;;;;;;5052419;28;20804;-55
2023/12/01 01:22:03;;;;;;;20.00;15.95;;;-0.40;99.90;;;;;;5052926;28;20219;-58
2023/12/01 01:24:30;;;;;;;19.15;15.60;;;-0.40;99.90;;;;;;5052483;28;20289;-56
2023/12/01 01:26:57;;;;;;;21.83;17.08;;;-0.40;99.90;;;;;;5051978;28;20206;-58
2023/12/01 01:29:25;;;;;;;19.42;16.52;;;-0.40;99.90;;;;;;5052613;28;20226;-56
2023/12/01 01:31:52;;;;;;;19.83;16.45;;;-0.40;99.90;;;;;;5052499;28;20759;-55
2023/12/01 01:34:18;;;;;;;15.93;14.13;;;-0.40;99.90;;;;;;5051996;28;20321;-56
2023/12/01 01:36:45;;;;;;;19.40;16.73;;;-0.30;99.90;;;;;;5052258;28;20212;-57
2023/12/01 01:39:12;;;;;;;21.20;15.45;;;-0.30;99.90;;;;;;5052405;28;20676;-57
2023/12/01 01:41:39;;;;;;;17.67;15.82;;;-0.30;99.90;;;;;;5052399;28;20833;-58
2023/12/01 01:44:06;;;;;;;18.13;16.00;;;-0.30;99.90;;;;;;5052286;28;20225;-57
2023/12/01 01:46:36;;;;;;;23.77;17.52;;;-0.30;99.90;;;;;;5051376;28;20213;-53
2023/12/01 01:49:04;;;;;;;21.63;16.15;;;-0.30;99.90;;;;;;5051430;28;20340;-56
2023/12/01 01:51:31;;;;;;;17.67;15.27;;;-0.30;99.90;;;;;;5052006;28;20275;-55
2023/12/01 01:53:58;;;;;;;18.75;16.50;;;-0.20;99.90;;;;;;5051853;28;20313;-57
2023/12/01 01:56:27;;;;;;;19.13;17.17;;;-0.20;99.90;;;;;;5051924;28;20216;-56
2023/12/01 01:58:54;;;;;;;21.02;17.40;;;-0.20;99.90;;;;;;5051410;28;20317;-56
2023/12/01 02:01:22;;;;;;;17.88;16.13;;;-0.20;99.90;;;;;;5051785;28;20213;-57
2023/12/01 02:03:50;;;;;;;22.83;16.20;;;-0.20;99.90;;;;;;5052072;28;20230;-55
2023/12/01 02:06:17;;;;;;;16.88;15.07;;;-0.20;99.90;;;;;;5051582;28;20597;-57
2023/12/01 02:08:44;;;;;;;18.60;16.30;;;-0.20;99.90;;;;;;5051538;28;20221;-55
2023/12/01 02:11:13;;;;;;;21.98;16.45;;;-0.20;99.90;;;;;;5051584;28;20210;-55
2023/12/01 02:13:40;;;;;;;18.70;15.70;;;-0.10;99.90;;;;;;5050969;28;20225;-56
2023/12/01 02:16:09;;;;;;;20.08;17.90;;;-0.10;99.90;;;;;;5050433;28;20210;-57
2023/12/01 02:18:36;;;;;;;22.85;15.50;;;-0.10;99.90;;;;;;5050588;28;20222;-57
2023/12/01 02:21:05;;;;;;;17.92;16.05;;;-0.10;99.90;;;;;;5051403;28;20301;-58
2023/12/01 02:23:33;;;;;;;19.30;15.38;;;-0.10;99.90;;;;;;5051394;28;20293;-57
2023/12/01 02:25:59;;;;;;;21.08;16.98;;;-0.10;99.90;;;;;;5049952;28;20210;-58
2023/12/01 02:28:26;;;;;;;21.85;18.15;;;-0.10;99.90;;;;;;5049450;28;20675;-59
2023/12/01 02:30:55;;;;;;;21.77;16.88;;;-0.10;99.90;;;;;;5050619;28;20206;-58
2023/12/01 02:33:23;;;;;;;20.00;17.20;;;-0.10;99.90;;;;;;5051392;28;20296;-55
2023/12/01 02:35:52;;;;;;;20.42;17.95;;;0.00;99.90;;;;;;5051471;28;20210;-56
2023/12/01 02:38:19;;;;;;;20.67;17.25;;;0.00;99.90;;;;;;5051196;28;20301;-57
2023/12/01 02:40:50;;;;;;;17.23;14.35;;;0.00;99.90;;;;;;5051351;28;20248;-59
2023/12/01 02:43:17;;;;;;;22.48;18.20;;;0.00;99.90;;;;;;5051086;28;20220;-58
2023/12/01 02:45:45;;;;;;;19.85;17.70;;;0.00;99.90;;;;;;5051316;28;20207;-57
2023/12/01 02:48:12;;;;;;;21.95;17.35;;;0.00;99.90;;;;;;5050594;28;20301;-56
2023/12/01 02:50:38;;;;;;;22.77;17.98;;;0.10;99.90;;;;;;5051014;28;20297;-56
2023/12/01 02:53:06;;;;;;;23.70;18.02;;;0.10;99.90;;;;;;5051010;28;20297;-55
2023/12/01 02:55:34;;;;;;;22.17;18.85;;;0.10;99.90;;;;;;5050852;28;20321;-58
2023/12/01 02:58:02;;;;;;;24.17;19.00;;;0.10;99.90;;;;;;5050904;28;20581;-58
2023/12/01 03:00:29;;;;;;;19.15;17.15;;;0.10;99.90;;;;;;5051202;28;20217;-56
2023/12/01 03:02:56;;;;;;;20.75;15.93;;;0.10;99.90;;;;;;5051227;28;20293;-53
2023/12/01 03:05:23;;;;;;;20.38;17.65;;;0.20;99.90;;;;;;5051048;28;20209;-57
2023/12/01 03:07:50;;;;;;;19.58;17.58;;;0.20;99.90;;;;;;5050603;28;21290;-55
2023/12/01 03:10:17;;;;;;;26.23;19.73;;;0.20;99.90;;;;;;5052886;28;20226;-58
2023/12/01 03:12:45;;;;;;;19.52;17.48;;;0.20;99.90;;;;;;5055208;28;20221;-57
2023/12/01 03:15:14;;;;;;;25.60;20.23;;;0.30;99.90;;;;;;5054791;28;20708;-57
2023/12/01 03:17:41;;;;;;;18.92;17.05;;;0.30;99.90;;;;;;5054870;28;20213;-58
2023/12/01 03:20:10;;;;;;;23.60;20.40;;;0.30;99.90;;;;;;5054806;28;20226;-56
2023/12/01 03:22:38;;;;;;;23.83;18.40;;;0.30;99.90;;;;;;5054912;28;20661;-57
2023/12/01 03:25:09;;;;;;;24.10;18.25;;;0.30;99.90;;;;;;5054867;28;20289;-59
2023/12/01 03:27:39;;;;;;;20.13;17.95;;;0.30;99.90;;;;;;5054689;28;20252;-57
2023/12/01 03:30:13;;;;;;;23.80;17.75;;;0.30;99.90;;;;;;5054614;28;20675;-58
2023/12/01 03:32:44;;;;;;;21.23;16.25;;;0.40;99.90;;;;;;5054454;28;20234;-59
2023/12/01 03:35:12;;;;;;;21.65;17.30;;;0.30;99.90;;;;;;5054402;28;20229;-58
2023/12/01 03:37:39;;;;;;;24.58;18.35;;;0.40;99.90;;;;;;5054537;28;20209;-58
2023/12/01 03:40:08;;;;;;;24.50;19.60;;;0.40;99.90;;;;;;5054644;28;20222;-57
2023/12/01 03:42:35;;;;;;;24.25;18.50;;;0.40;99.90;;;;;;5054449;28;20629;-59
2023/12/01 03:45:01;;;;;;;23.63;18.80;;;0.40;99.90;;;;;;5054372;28;20218;-58
2023/12/01 03:47:28;;;;;;;19.63;17.50;;;0.40;99.90;;;;;;5054174;28;20645;-58
2023/12/01 03:49:56;;;;;;;25.15;18.40;;;0.40;99.90;;;;;;5054122;28;20240;-58
2023/12/01 03:52:23;;;;;;;21.58;17.58;;;0.40;99.90;;;;;;5054424;28;20297;-58
2023/12/01 03:54:50;;;;;;;19.75;17.60;;;0.50;99.90;;;;;;5054231;28;20232;-58
2023/12/01 03:57:17;;;;;;;19.23;16.77;;;0.40;99.90;;;;;;5054103;28;20602;-54
2023/12/01 03:59:44;;;;;;;24.00;17.42;;;0.40;99.90;;;;;;5053959;28;20227;-59
2023/12/01 04:02:10;;;;;;;23.38;18.50;;;0.40;99.90;;;;;;5053897;28;20591;-55
2023/12/01 04:04:38;;;;;;;20.80;16.63;;;0.50;99.90;;;;;;5053152;28;20210;-59
2023/12/01 04:07:07;;;;;;;20.55;17.73;;;0.50;99.90;;;;;;5053689;28;20210;-57
2023/12/01 04:09:34;;;;;;;25.20;17.85;;;0.50;99.90;;;;;;5053942;28;20237;-59
2023/12/01 04:12:01;;;;;;;23.25;17.83;;;0.50;99.90;;;;;;5053689;28;20213;-54
2023/12/01 04:14:29;;;;;;;22.77;18.35;;;0.50;99.90;;;;;;5053800;28;20233;-58
2023/12/01 04:16:57;;;;;;;27.40;20.20;;;0.50;99.90;;;;;;5053641;28;20296;-57
2023/12/01 04:19:24;;;;;;;28.55;21.58;;;0.60;99.90;;;;;;5053914;28;20227;-58
2023/12/01 04:21:52;;;;;;;25.77;17.65;;;0.60;99.90;;;;;;5053677;28;20368;-58
2023/12/01 04:24:21;;;;;;;28.58;20.08;;;0.60;99.90;;;;;;5053588;28;20285;-56
2023/12/01 04:26:48;;;;;;;25.00;19.70;;;0.60;99.90;;;;;;5053390;28;20214;-57
2023/12/01 04:29:15;;;;;;;25.70;18.80;;;0.60;99.90;;;;;;5053659;28;20233;-58
2023/12/01 04:31:42;;;;;;;29.45;18.90;;;0.60;99.90;;;;;;5053678;28;20300;-55
2023/12/01 04:34:09;;;;;;;25.23;17.25;;;0.60;99.90;;;;;;5053570;28;20229;-57
2023/12/01 04:36:36;;;;;;;31.30;18.58;;;0.60;99.90;;;;;;5053473;28;20206;-55
2023/12/01 04:39:04;;;;;;;25.15;18.70;;;0.60;99.90;;;;;;5053062;28;20227;-58
2023/12/01 04:41:32;;;;;;;27.45;19.80;;;0.60;99.90;;;;;;5053614;28;20219;-58
2023/12/01 04:43:59;;;;;;;30.20;19.58;;;0.60;99.90;;;;;;5053428;28;20206;-58
2023/12/01 04:46:26;;;;;;;20.60;16.90;;;0.60;99.90;;;;;;5053181;28;20207;-56
2023/12/01 04:48:53;;;;;;;29.58;18.77;;;0.70;99.90;;;;;;5053182;28;20238;-59
2023/12/01 04:51:20;;;;;;;24.00;18.92;;;0.70;99.90;;;;;;5053234;28;20228;-55
2023/12/01 04:53:48;;;;;;;31.13;18.55;;;0.70;99.90;;;;;;5053201;28;20209;-57
2023/12/01 04:56:14;;;;;;;22.77;18.20;;;0.70;99.90;;;;;;5053238;28;20225;-56
2023/12/01 04:58:42;;;;;;;28.73;20.60;;;0.70;99.90;;;;;;5052828;28;20603;-57
2023/12/01 05:01:09;;;;;;;25.17;18.80;;;0.70;99.90;;;;;;5053035;28;20445;-58
2023/12/01 05:03:37;;;;;;;25.20;16.83;;;0.70;99.90;;;;;;5053144;28;20356;-58
2023/12/01 05:06:04;;;;;;;25.77;17.10;;;0.70;99.90;;;;;;5052667;28;20205;-58
2023/12/01 05:08:31;;;;;;;28.45;18.52;;;0.70;99.90;;;;;;5052966;28;20226;-58
2023/12/01 05:10:59;;;;;;;25.42;17.73;;;0.70;99.90;;;;;;5053063;28;20626;-57
2023/12/01 05:13:25;;;;;;;23.13;19.40;;;0.70;99.90;;;;;;5052585;28;20730;-58
2023/12/01 05:15:54;;;;;;;27.98;17.48;;;0.70;99.90;;;;;;5052614;28;20232;-58
2023/12/01 05:18:20;;;;;;;26.23;19.40;;;0.70;99.90;;;;;;5052344;28;20202;-58
2023/12/01 05:20:47;;;;;;;28.25;19.42;;;0.70;99.90;;;;;;5052402;28;20206;-59
2023/12/01 05:23:14;;;;;;;29.60;18.60;;;0.70;99.90;;;;;;5052822;28;20293;-56
2023/12/01 05:25:42;;;;;;;32.40;20.65;;;0.80;99.90;;;;;;5052624;28;20199;-56
2023/12/01 05:28:10;;;;;;;22.20;18.98;;;0.80;99.90;;;;;;5052077;28;20703;-55
2023/12/01 05:30:40;;;;;;;25.33;18.77;;;0.80;99.90;;;;;;5052484;28;20207;-58
2023/12/01 05:33:08;;;;;;;29.75;20.23;;;0.80;99.90;;;;;;5051753;28;20301;-56
2023/12/01 05:35:37;;;;;;;26.85;18.15;;;0.80;99.90;;;;;;5052317;28;20233;-57
2023/12/01 05:38:05;;;;;;;25.75;18.83;;;0.80;99.90;;;;;;5052221;28;20666;-59
2023/12/01 05:40:34;;;;;;;26.60;19.63;;;0.80;99.90;;;;;;5052313;28;20210;-56
2023/12/01 05:43:01;;;;;;;31.00;21.67;;;0.80;99.90;;;;;;5052086;28;20210;-54
2023/12/01 05:45:29;;;;;;;26.48;18.42;;;0.80;99.90;;;;;;5052353;28;20207;-57
2023/12/01 05:47:57;;;;;;;30.90;22.17;;;0.80;99.90;;;;;;5051535;28;20301;-57
2023/12/01 05:50:26;;;;;;;27.42;19.63;;;0.80;99.90;;;;;;5052168;28;20226;-57
2023/12/01 05:52:56;;;;;;;29.52;21.25;;;0.80;99.90;;;;;;5052235;28;20297;-57
2023/12/01 05:55:24;;;;;;;30.15;22.23;;;0.80;99.90;;;;;;5051977;28;20317;-57
2023/12/01 05:57:52;;;;;;;30.70;22.50;;;0.80;99.90;;;;;;5051630;28;20202;-58
2023/12/01 06:00:20;;;;;;;30.83;20.33;;;0.80;99.90;;;;;;5051891;28;20721;-58
2023/12/01 06:02:48;;;;;;;29.00;20.42;;;0.80;99.90;;;;;;5052069;28;20234;-57
2023/12/01 06:05:15;;;;;;;32.22;21.60;;;0.80;99.90;;;;;;5051896;28;20207;-58
2023/12/01 06:07:45;;;;;;;30.77;22.15;;;0.80;99.90;;;;;;5051570;28;20210;-55
2023/12/01 06:10:12;;;;;;;30.40;22.70;;;0.80;99.90;;;;;;5051535;28;20317;-59
2023/12/01 06:12:40;;;;;;;32.17;21.13;;;0.80;99.90;;;;;;5051049;28;20290;-59
2023/12/01 06:15:09;;;;;;;32.50;21.75;;;0.80;99.90;;;;;;5051051;28;20334;-56
2023/12/01 06:17:36;;;;;;;31.52;24.70;;;0.80;99.90;;;;;;5050376;28;20217;-58
2023/12/01 06:20:03;;;;;;;34.05;22.80;;;0.80;99.90;;;;;;5050706;28;20305;-57
2023/12/01 06:22:30;;;;;;;34.42;23.40;;;0.80;99.90;;;;;;5051473;28;20213;-58
2023/12/01 06:24:58;;;;;;;31.60;23.90;;;0.80;99.90;;;;;;5051480;28;20191;-58
2023/12/01 06:27:25;;;;;;;31.42;21.75;;;0.80;99.90;;;;;;5051001;28;20211;-56
2023/12/01 06:29:52;;;;;;;32.47;22.60;;;0.80;99.90;;;;;;5051599;28;20222;-57
2023/12/01 06:32:18;;;;;;;32.83;22.63;;;0.80;99.90;;;;;;5051060;28;20209;-59
2023/12/01 06:34:45;;;;;;;34.80;21.95;;;0.80;99.90;;;;;;5051197;28;20317;-57
2023/12/01 06:37:12;;;;;;;31.40;20.98;;;0.80;99.90;;;;;;5051280;28;20293;-59
2023/12/01 06:39:39;;;;;;;31.23;23.38;;;0.80;99.90;;;;;;5051356;28;20222;-57
2023/12/01 06:42:08;;;;;;;30.33;21.52;;;0.80;99.90;;;;;;5050964;28;20216;-59
2023/12/01 06:44:35;;;;;;;29.60;22.38;;;0.80;99.90;;;;;;5050208;28;20202;-54
2023/12/01 06:47:02;;;;;;;28.50;20.33;;;0.80;99.90;;;;;;5050971;28;20279;-59
2023/12/01 06:49:29;;;;;;;24.38;20.23;;;0.70;99.90;;;;;;5050936;28;20682;-57
2023/12/01 06:51:58;;;;;;;32.67;23.15;;;0.80;99.90;;;;;;5051009;28;20209;-57
2023/12/01 06:54:27;;;;;;;26.92;19.98;;;0.80;99.90;;;;;;5050693;28;20289;-57
2023/12/01 06:56:55;;;;;;;28.80;19.77;;;0.70;99.90;;;;;;5050884;28;20251;-57
2023/12/01 06:59:23;;;;;;;30.40;20.08;;;0.70;99.90;;;;;;5050939;28;20230;-57
2023/12/01 07:01:50;;;;;;;35.47;20.55;;;0.70;99.90;;;;;;5051229;28;20207;-55
2023/12/01 07:04:16;;;;;;;29.25;20.98;;;0.70;99.90;;;;;;5051083;28;20210;-59
2023/12/01 07:06:46;;;;;;;30.33;18.73;;;0.70;99.90;;;;;;5050495;28;20203;-58
2023/12/01 07:09:17;;;;;;;31.83;21.98;;;0.70;99.90;;;;;;5050887;28;20221;-58
2023/12/01 07:11:44;;;;;;;34.72;19.95;;;0.70;99.90;;;;;;5051047;28;20209;-56
2023/12/01 07:14:12;;;;;;;31.67;21.58;;;0.70;99.90;;;;;;5050862;28;20215;-54
2023/12/01 07:16:41;;;;;;;37.03;24.20;;;0.70;99.90;;;;;;5050795;28;20307;-58
2023/12/01 07:19:08;;;;;;;28.20;18.90;;;0.70;99.90;;;;;;5050733;28;20313;-58
2023/12/01 07:21:35;;;;;;;34.63;23.38;;;0.70;99.90;;;;;;5050687;28;20217;-55
2023/12/01 07:24:04;;;;;;;27.15;20.48;;;0.70;99.90;;;;;;5050612;28;20206;-57
2023/12/01 07:26:32;;;;;;;32.35;20.65;;;0.70;99.90;;;;;;5050431;28;20738;-57
2023/12/01 07:29:00;;;;;;;32.42;22.00;;;0.70;99.90;;;;;;5050256;28;20271;-57
2023/12/01 07:31:27;;;;;;;36.17;22.98;;;0.70;99.90;;;;;;5050827;28;20592;-56
2023/12/01 07:33:55;;;;;;;33.20;25.92;;;0.70;99.90;;;;;;5050767;28;20210;-58
2023/12/01 07:36:22;;;;;;;34.10;22.40;;;0.80;99.90;;;;;;5050743;28;20229;-57
2023/12/01 07:38:49;;;;;;;32.03;22.30;;;0.80;99.90;;;;;;5050575;28;20233;-57
2023/12/01 07:41:15;;;;;;;31.10;21.20;;;0.90;99.90;;;;;;5050674;28;20594;-56
2023/12/01 07:43:42;;;;;;;35.45;22.10;;;0.90;99.90;;;;;;5050751;28;20213;-56
2023/12/01 07:46:09;;;;;;;32.83;20.73;;;0.90;99.90;;;;;;5050576;28;20209;-58
2023/12/01 07:48:36;;;;;;;38.22;22.67;;;0.90;99.90;;;;;;5049999;28;20238;-57
2023/12/01 07:51:05;;;;;;;29.92;21.75;;;1.00;99.90;;;;;;5050435;28;20673;-59
2023/12/01 07:53:33;;;;;;;27.40;20.65;;;0.90;99.90;;;;;;5050626;28;20210;-57
2023/12/01 07:56:00;;;;;;;27.55;21.75;;;0.90;99.90;;;;;;5051744;28;20563;-57
2023/12/01 07:58:27;;;;;;;31.58;20.52;;;1.00;99.90;;;;;;5054030;28;20230;-57
2023/12/01 08:00:55;;;;;;;36.25;22.35;;;1.00;99.90;;;;;;5054196;28;20210;-57
2023/12/01 08:03:22;;;;;;;30.60;20.67;;;1.00;99.90;;;;;;5053979;28;20215;-58
2023/12/01 08:05:49;;;;;;;31.35;22.08;;;1.00;99.90;;;;;;5054035;28;20616;-55
2023/12/01 08:08:17;;;;;;;33.38;22.33;;;1.00;99.90;;;;;;5053635;28;20206;-59
2023/12/01 08:10:44;;;;;;;31.85;22.92;;;1.10;99.90;;;;;;5054025;28;20206;-57
2023/12/01 08:13:11;;;;;;;33.80;24.40;;;1.10;99.90;;;;;;5053900;28;20644;-59
2023/12/01 08:15:38;;;;;;;38.85;23.50;;;1.10;99.90;;;;;;5053474;28;20222;-58
2023/12/01 08:18:05;;;;;;;36.33;24.45;;;1.10;99.90;;;;;;5053809;28;20301;-57
2023/12/01 08:20:32;;;;;;;28.30;22.63;;;1.20;99.90;;;;;;5053783;28;20210;-56
2023/12/01 08:22:59;;;;;;;36.38;27.30;;;1.20;99.90;;;;;;5053691;28;20591;-58
2023/12/01 08:25:27;;;;;;;39.35;26.70;;;1.30;99.90;;;;;;5053553;28;20206;-57
2023/12/01 08:27:54;;;;;;;36.67;28.17;;;1.30;99.90;;;;;;5053710;28;20206;-57
2023/12/01 08:30:21;;;;;;;30.17;23.95;;;1.30;99.90;;;;;;5053452;28;20230;-56
2023/12/01 08:32:48;;;;;;;36.80;26.52;;;1.40;99.90;;;;;;5053774;28;20743;-58
2023/12/01 08:35:15;;;;;;;42.58;29.77;;;1.40;99.90;;;;;;5053756;28;20210;-58
2023/12/01 08:37:42;;;;;;;38.63;25.50;;;1.40;99.90;;;;;;5053620;28;20650;-56
2023/12/01 08:40:11;;;;;;;40.45;26.60;;;1.50;99.90;;;;;;5053428;28;20230;-57
2023/12/01 08:42:41;;;;;;;43.33;25.25;;;1.50;99.90;;;;;;5053316;28;20213;-56
2023/12/01 08:45:09;;;;;;;36.92;26.45;;;1.50;99.90;;;;;;5052889;28;20206;-58
2023/12/01 08:47:36;;;;;;;38.08;24.55;;;1.50;99.90;;;;;;5051597;28;20209;-58
2023/12/01 08:50:03;;;;;;;35.35;24.33;;;1.60;99.90;;;;;;5051871;28;20226;-59
2023/12/01 08:52:29;;;;;;;33.90;24.10;;;1.60;99.90;;;;;;5053175;28;20210;-57
2023/12/01 08:54:56;;;;;;;30.27;23.08;;;1.60;99.90;;;;;;5052636;28;20210;-58
2023/12/01 08:57:23;;;;;;;34.55;23.70;;;1.60;99.90;;;;;;5052704;28;20603;-54
2023/12/01 08:59:51;;;;;;;34.92;24.35;;;1.60;99.90;;;;;;5052898;28;20233;-53
2023/12/01 09:02:19;;;;;;;32.17;24.27;;;1.70;99.90;;;;;;5052863;28;20582;-57
2023/12/01 09:04:46;;;;;;;46.25;28.52;;;1.70;99.90;;;;;;5050909;28;20207;-58
2023/12/01 09:07:12;;;;;;;32.88;25.02;;;1.70;99.90;;;;;;5050885;28;20202;-58
2023/12/01 09:09:39;;;;;;;33.70;25.42;;;1.70;99.90;;;;;;5052407;28;20309;-56
2023/12/01 09:12:06;;;;;;;38.47;26.30;;;1.80;99.90;;;;;;5052435;28;20211;-58
2023/12/01 09:14:34;;;;;;;32.95;23.25;;;1.80;99.90;;;;;;5051360;28;20644;-59
2023/12/01 09:17:02;;;;;;;35.45;24.17;;;1.80;99.90;;;;;;5051892;28;20237;-56
2023/12/01 09:19:29;;;;;;;34.75;22.80;;;1.80;99.90;;;;;;5051391;28;20336;-58
2023/12/01 09:21:56;;;;;;;31.55;21.75;;;1.80;99.90;;;;;;5051780;28;20210;-56
2023/12/01 09:24:23;;;;;;;28.63;21.35;;;1.90;99.90;;;;;;5051073;28;20393;-59
2023/12/01 09:26:50;;;;;;;36.63;22.40;;;1.90;99.90;;;;;;5051334;28;20194;-59
2023/12/01 09:29:17;;;;;;;34.92;23.10;;;1.90;99.90;;;;;;5052208;28;20276;-58
2023/12/01 09:31:45;;;;;;;31.45;23.65;;;2.00;99.90;;;;;;5051446;28;20232;-56
2023/12/01 09:34:13;;;;;;;29.67;23.65;;;2.00;99.90;;;;;;5052009;28;20293;-58
2023/12/01 09:36:42;;;;;;;28.85;21.25;;;2.00;99.90;;;;;;5049489;28;20226;-59
2023/12/01 09:39:09;;;;;;;31.23;23.08;;;2.10;99.90;;;;;;5051086;28;20308;-58
2023/12/01 09:41:37;;;;;;;35.42;23.55;;;2.10;99.90;;;;;;5051094;28;20210;-59
2023/12/01 09:44:05;;;;;;;33.00;25.20;;;2.10;99.90;;;;;;5051644;28;20289;-60
2023/12/01 09:46:34;;;;;;;29.85;20.08;;;2.20;99.90;;;;;;5050461;28;20203;-58
2023/12/01 09:49:03;;;;;;;34.00;23.65;;;2.20;99.90;;;;;;5050883;28;20226;-57
2023/12/01 09:51:34;;;;;;;28.58;21.08;;;2.30;99.90;;;;;;5050183;28;20212;-58
2023/12/01 09:54:01;;;;;;;30.52;20.70;;;2.30;99.90;;;;;;5051796;28;20680;-56
2023/12/01 09:56:28;;;;;;;29.77;23.83;;;2.30;99.90;;;;;;5050152;28;20280;-58
2023/12/01 09:58:56;;;;;;;30.90;21.77;;;2.40;99.90;;;;;;5051005;28;20305;-58
2023/12/01 10:01:23;;;;;;;23.73;18.58;;;2.40;99.90;;;;;;5050390;28;20230;-59
2023/12/01 10:03:50;;;;;;;29.42;20.17;;;2.40;99.90;;;;;;5051041;28;20195;-59
2023/12/01 10:06:17;;;;;;;28.27;20.73;;;2.40;99.90;;;;;;5049979;28;20297;-56
2023/12/01 10:08:49;;;;;;;26.23;19.50;;;2.40;99.90;;;;;;5050760;28;20321;-56
2023/12/01 10:11:20;;;;;;;23.90;18.65;;;2.40;99.90;;;;;;5050046;28;20293;-57
2023/12/01 10:13:48;;;;;;;20.98;16.50;;;2.40;99.90;;;;;;5050007;28;20241;-56
2023/12/01 10:16:15;;;;;;;23.85;17.48;;;2.50;99.90;;;;;;5049957;28;20743;-56
2023/12/01 10:18:56;;;;;;;27.05;22.13;;;2.50;99.90;;;;;;5048653;28;20237;-57
2023/12/01 10:21:46;;;;;;;26.90;18.70;;;2.50;99.90;;;;;;5049932;28;20206;-58
2023/12/01 10:24:16;;;;;;;19.20;15.45;;;2.50;99.90;;;;;;5049102;28;20651;-54
2023/12/01 10:26:44;;;;;;;22.10;17.45;;;2.50;99.90;;;;;;5048907;28;20213;-57
2023/12/01 10:29:30;;;;;;;18.38;15.05;;;2.50;99.90;;;;;;5049660;28;20233;-58
2023/12/01 10:32:02;;;;;;;20.83;15.27;;;2.60;99.90;;;;;;5045236;28;20289;-56
2023/12/01 10:34:29;;;;;;;23.85;15.15;;;2.50;99.90;;;;;;5049684;28;20205;-57
2023/12/01 10:36:56;;;;;;;18.55;14.13;;;2.50;99.90;;;;;;5048661;28;20242;-58
2023/12/01 10:39:27;;;;;;;18.67;14.57;;;2.60;99.90;;;;;;5049355;28;20314;-58
2023/12/01 10:41:55;;;;;;;17.63;13.48;;;2.60;99.90;;;;;;5047464;28;20289;-57
2023/12/01 10:44:24;;;;;;;18.38;14.95;;;2.60;99.90;;;;;;5050372;28;20656;-58
2023/12/01 10:46:52;;;;;;;18.33;13.90;;;2.60;99.90;;;;;;5048327;28;20661;-59
2023/12/01 10:49:19;;;;;;;22.85;14.80;;;2.70;99.90;;;;;;5049749;28;20241;-60
2023/12/01 10:51:46;;;;;;;15.63;13.70;;;2.70;99.90;;;;;;5048248;28;20293;-56
2023/12/01 10:54:15;;;;;;;17.02;14.07;;;2.70;99.90;;;;;;5043233;28;20207;-59
2023/12/01 10:56:53;;;;;;;20.27;15.20;;;2.70;99.90;;;;;;5048685;28;20687;-58
2023/12/01 10:59:22;;;;;;;15.88;13.48;;;2.70;99.90;;;;;;5048667;28;20222;-59
2023/12/01 11:01:50;;;;;;;19.58;13.93;;;2.80;99.90;;;;;;5048304;28;20202;-58
2023/12/01 11:04:26;;;;;;;16.75;12.50;;;2.80;99.90;;;;;;5049665;28;20206;-59
2023/12/01 11:07:06;;;;;;;16.42;11.35;;;2.80;99.90;;;;;;5049972;28;20272;-57
2023/12/01 11:09:42;;;;;;;15.27;12.52;;;2.80;99.90;;;;;;5048010;28;20287;-57
2023/12/01 11:12:18;;;;;;;16.13;11.23;;;2.80;99.90;;;;;;5047187;28;20322;-57
2023/12/01 11:14:50;;;;;;;14.88;12.25;;;2.80;99.90;;;;;;5048622;28;20209;-57
2023/12/01 11:17:18;;;;;;;14.75;11.65;;;2.80;99.90;;;;;;5047502;28;20227;-56
2023/12/01 11:19:45;;;;;;;17.70;14.13;;;2.80;99.90;;;;;;5049026;28;20236;-56
2023/12/01 11:22:27;;;;;;;16.58;10.27;;;2.90;99.90;;;;;;5049280;28;20212;-57
2023/12/01 11:24:54;;;;;;;14.93;11.20;;;2.90;99.90;;;;;;5049576;28;20635;-56
2023/12/01 11:27:23;;;;;;;13.30;11.32;;;2.90;99.90;;;;;;5047808;28;20289;-54
2023/12/01 11:30:12;;;;;;;18.08;12.35;;;2.90;99.90;;;;;;5049948;28;20785;-55
2023/12/01 11:32:40;;;;;;;16.58;12.63;;;3.00;99.90;;;;;;5053115;28;20241;-57
2023/12/01 11:35:09;;;;;;;19.00;12.60;;;3.00;99.90;;;;;;5052858;28;20672;-57
2023/12/01 11:38:03;;;;;;;16.58;11.52;;;3.00;99.90;;;;;;5052000;28;20226;-57
2023/12/01 11:40:40;;;;;;;17.38;11.88;;;3.00;99.90;;;;;;5053209;28;20254;-55
2023/12/01 11:43:11;;;;;;;16.52;13.25;;;3.10;99.90;;;;;;5053130;28;20218;-55
2023/12/01 11:45:39;;;;;;;17.88;12.95;;;3.10;99.90;;;;;;5053291;28;20213;-57
2023/12/01 11:48:08;;;;;;;16.85;11.98;;;3.10;99.90;;;;;;5052677;28;20877;-54
2023/12/01 11:50:40;;;;;;;17.90;12.65;;;3.10;99.90;;;;;;5053961;28;20213;-54
2023/12/01 11:53:12;;;;;;;13.50;11.05;;;3.10;99.90;;;;;;5052872;28;20202;-57
2023/12/01 11:55:39;;;;;;;17.92;12.13;;;3.10;99.90;;;;;;5053871;28;20202;-57
2023/12/01 11:58:06;;;;;;;17.67;12.55;;;3.00;99.90;;;;;;5053684;28;20262;-58
2023/12/01 12:00:35;;;;;;;15.55;12.68;;;3.00;99.90;;;;;;5053613;28;20676;-55
2023/12/01 12:03:01;;;;;;;18.30;12.63;;;3.00;99.90;;;;;;5052940;28;20683;-58
2023/12/01 12:05:29;;;;;;;17.45;12.93;;;3.00;99.90;;;;;;5053646;28;20206;-54
2023/12/01 12:07:56;;;;;;;16.63;12.60;;;2.90;99.90;;;;;;5053497;28;20209;-57
2023/12/01 12:10:23;;;;;;;14.23;12.05;;;2.90;99.90;;;;;;5053646;28;20231;-54
2023/12/01 12:12:50;;;;;;;15.00;11.82;;;2.90;99.90;;;;;;5052700;28;20209;-58
2023/12/01 12:15:17;;;;;;;21.17;13.80;;;2.80;99.90;;;;;;5050923;28;20203;-54
2023/12/01 12:17:45;;;;;;;17.05;13.32;;;2.90;99.90;;;;;;5053183;28;20234;-57
2023/12/01 12:20:12;;;;;;;15.82;12.50;;;2.90;99.90;;;;;;5053197;28;20229;-58
2023/12/01 12:22:40;;;;;;;15.63;11.90;;;2.90;99.90;;;;;;5053506;28;20575;-57
2023/12/01 12:25:10;;;;;;;17.17;13.35;;;2.90;99.90;;;;;;5053285;28;20214;-56
2023/12/01 12:27:39;;;;;;;14.90;11.38;;;2.90;99.90;;;;;;5053055;28;20209;-53
2023/12/01 12:30:07;;;;;;;16.20;14.00;;;2.90;99.90;;;;;;5053305;28;20237;-54
2023/12/01 12:32:36;;;;;;;16.58;13.20;;;2.80;99.90;;;;;;5053229;28;20268;-56
2023/12/01 12:35:06;;;;;;;17.77;12.23;;;2.90;99.90;;;;;;5052682;28;20209;-58
2023/12/01 12:37:34;;;;;;;17.35;12.25;;;2.90;99.90;;;;;;5051553;28;20783;-55
2023/12/01 12:40:04;;;;;;;23.05;13.70;;;2.90;99.90;;;;;;5052821;28;20641;-57